createdAt,value
2022-08-30T00:02:21.011Z,2.50
2022-08-30T00:04:48.336Z,2.60
2022-08-30T00:07:15.538Z,2.76
2022-08-30T00:09:42.330Z,2.84
2022-08-30T00:12:09.621Z,2.48
2022-08-30T00:14:36.622Z,2.59
2022-08-30T00:17:03.285Z,2.55
2022-08-30T00:19:29.925Z,2.66
2022-08-30T00:21:56.462Z,2.65
2022-08-30T00:24:23.324Z,2.64
2022-08-30T00:26:50.025Z,2.70
2022-08-30T00:29:16.692Z,2.65
2022-08-30T00:31:43.295Z,2.81
2022-08-30T00:34:09.948Z,2.79
2022-08-30T00:36:36.724Z,2.87
2022-08-30T00:39:04.133Z,2.88
2022-08-30T00:41:30.821Z,3.06
2022-08-30T00:43:57.722Z,3.29
2022-08-30T00:46:27.747Z,3.38
2022-08-30T00:48:56.016Z,3.39
2022-08-30T00:51:24.413Z,3.41
2022-08-30T00:53:57.059Z,3.61
2022-08-30T00:56:25.401Z,3.45
2022-08-30T00:58:54.399Z,3.61
2022-08-30T01:01:21.315Z,3.73
2022-08-30T01:03:48.983Z,3.48
2022-08-30T01:06:17.263Z,3.66
2022-08-30T01:08:45.908Z,3.35
2022-08-30T01:11:13.889Z,3.55
2022-08-30T01:13:40.753Z,3.54
2022-08-30T01:16:08.053Z,3.67
2022-08-30T01:18:37.000Z,3.88
2022-08-30T01:21:07.683Z,3.86
2022-08-30T01:23:40.836Z,3.86
2022-08-30T01:26:10.386Z,4.16
2022-08-30T01:28:39.398Z,4.18
2022-08-30T01:31:06.361Z,4.35
2022-08-30T01:33:33.082Z,4.26
2022-08-30T01:36:03.806Z,4.01
2022-08-30T01:38:37.000Z,4.41
2022-08-30T01:41:13.817Z,4.27
2022-08-30T01:43:41.030Z,4.69
2022-08-30T01:46:08.679Z,4.42
2022-08-30T01:48:35.494Z,4.58
2022-08-30T01:51:02.410Z,4.67
2022-08-30T01:53:29.546Z,4.34
2022-08-30T01:55:56.187Z,4.22
2022-08-30T01:58:23.383Z,4.14
2022-08-30T02:00:51.434Z,4.27
2022-08-30T02:03:18.215Z,4.14
2022-08-30T02:05:45.346Z,3.86
2022-08-30T02:08:11.878Z,3.76
2022-08-30T02:10:38.494Z,3.75
2022-08-30T02:13:05.127Z,3.98
2022-08-30T02:15:32.997Z,3.86
2022-08-30T02:18:08.381Z,3.81
2022-08-30T02:20:35.002Z,4.03
2022-08-30T02:23:01.684Z,3.75
2022-08-30T02:25:28.230Z,3.70
2022-08-30T02:27:54.822Z,3.98
2022-08-30T02:30:21.551Z,3.60
2022-08-30T02:32:48.434Z,4.00
2022-08-30T02:35:15.305Z,4.05
2022-08-30T02:37:42.037Z,3.88
2022-08-30T02:40:09.949Z,3.78
2022-08-30T02:42:36.645Z,3.69
2022-08-30T02:45:03.446Z,3.72
2022-08-30T02:47:30.052Z,3.87
2022-08-30T02:49:56.618Z,4.07
2022-08-30T02:52:27.726Z,4.14
2022-08-30T02:54:55.262Z,4.19
2022-08-30T02:57:22.032Z,4.12
2022-08-30T02:59:49.314Z,4.22
2022-08-30T03:02:16.160Z,4.13
2022-08-30T03:04:45.021Z,4.46
2022-08-30T03:07:12.794Z,4.60
2022-08-30T03:09:39.735Z,4.46
2022-08-30T03:12:07.754Z,4.84
2022-08-30T03:14:36.518Z,4.65
2022-08-30T03:17:04.823Z,4.72
2022-08-30T03:19:31.441Z,4.73
2022-08-30T03:21:58.483Z,4.43
2022-08-30T03:24:25.893Z,4.62
2022-08-30T03:26:53.511Z,4.77
2022-08-30T03:29:20.066Z,5.09
2022-08-30T03:31:53.003Z,5.02
2022-08-30T03:34:21.960Z,4.97
2022-08-30T03:36:49.451Z,5.06
2022-08-30T03:39:16.104Z,4.77
2022-08-30T03:41:42.907Z,4.96
2022-08-30T03:44:09.596Z,5.34
2022-08-30T03:46:37.617Z,4.95
2022-08-30T03:49:05.085Z,5.54
2022-08-30T03:51:31.752Z,5.65
2022-08-30T03:53:58.300Z,5.38
2022-08-30T03:56:24.888Z,5.62
2022-08-30T03:58:51.889Z,5.53
2022-08-30T04:01:18.782Z,5.71
2022-08-30T04:03:45.521Z,5.40
2022-08-30T04:06:12.597Z,5.73
2022-08-30T04:08:39.324Z,5.50
2022-08-30T04:11:07.293Z,5.81
2022-08-30T04:13:33.902Z,5.97
2022-08-30T04:16:00.796Z,5.83
2022-08-30T04:18:27.489Z,6.21
2022-08-30T04:20:54.154Z,6.32
2022-08-30T04:23:20.790Z,6.50
2022-08-30T04:25:47.627Z,6.12
2022-08-30T04:28:14.205Z,6.15
2022-08-30T04:30:42.670Z,6.04
2022-08-30T04:33:09.716Z,6.60
2022-08-30T04:35:36.350Z,6.21
2022-08-30T04:38:03.829Z,6.41
2022-08-30T04:40:30.552Z,6.20
2022-08-30T04:42:58.295Z,6.45
2022-08-30T04:45:25.195Z,6.37
2022-08-30T04:47:52.176Z,6.43
2022-08-30T04:50:20.629Z,6.29
2022-08-30T04:52:47.511Z,6.07
2022-08-30T04:55:19.521Z,6.37
2022-08-30T04:57:47.217Z,6.17
2022-08-30T05:00:14.251Z,6.04
2022-08-30T05:02:41.403Z,6.44
2022-08-30T05:05:27.698Z,6.31
2022-08-30T05:07:55.113Z,6.42
2022-08-30T05:10:21.746Z,6.37
2022-08-30T05:12:48.334Z,6.37
2022-08-30T05:15:15.062Z,5.76
2022-08-30T05:17:41.700Z,6.64
2022-08-30T05:20:09.991Z,6.37
2022-08-30T05:22:37.434Z,6.36
2022-08-30T05:25:05.268Z,11.02
2022-08-30T05:27:31.946Z,19.40
2022-08-30T05:29:58.737Z,10.87
2022-08-30T05:32:25.373Z,17.61
2022-08-30T05:34:52.005Z,20.31
2022-08-30T05:37:18.646Z,20.04
2022-08-30T05:39:50.811Z,16.77
2022-08-30T05:42:18.746Z,10.73
2022-08-30T05:44:45.267Z,10.97
2022-08-30T05:47:11.891Z,9.93
2022-08-30T05:49:38.839Z,8.99
2022-08-30T05:52:06.209Z,9.19
2022-08-30T05:54:32.771Z,7.78
2022-08-30T05:56:59.900Z,7.00
2022-08-30T05:59:26.709Z,11.11
2022-08-30T06:01:56.708Z,8.63
2022-08-30T06:04:23.417Z,6.64
2022-08-30T06:06:50.177Z,6.38
2022-08-30T06:09:17.813Z,5.82
2022-08-30T06:11:44.982Z,5.94
2022-08-30T06:14:12.193Z,5.54
2022-08-30T06:16:39.872Z,5.46
2022-08-30T06:19:08.685Z,5.39
2022-08-30T06:21:36.710Z,5.27
2022-08-30T06:24:05.149Z,4.82
2022-08-30T06:28:59.295Z,4.63
2022-08-30T06:31:26.805Z,4.46
2022-08-30T06:33:54.511Z,3.98
2022-08-30T06:36:24.329Z,4.54
2022-08-30T06:38:52.596Z,3.95
2022-08-30T06:41:21.177Z,4.15
2022-08-30T06:43:49.191Z,3.83
2022-08-30T06:46:20.889Z,3.84
2022-08-30T06:48:48.484Z,3.67
2022-08-30T06:51:15.509Z,3.71
2022-08-30T06:53:42.900Z,3.60
2022-08-30T06:56:16.469Z,3.38
2022-08-30T06:58:43.599Z,2.93
2022-08-30T07:01:14.989Z,3.32
2022-08-30T07:03:41.625Z,2.89
2022-08-30T07:06:08.328Z,2.91
2022-08-30T07:08:34.993Z,2.66
2022-08-30T07:11:02.445Z,2.61
2022-08-30T07:13:29.402Z,2.63
2022-08-30T07:15:56.021Z,2.38
2022-08-30T07:18:41.016Z,2.23
2022-08-30T07:21:11.935Z,2.33
2022-08-30T07:23:38.563Z,2.48
2022-08-30T07:26:06.832Z,2.36
2022-08-30T07:28:34.229Z,2.28
2022-08-30T07:31:00.894Z,2.19
2022-08-30T07:33:27.636Z,1.93
2022-08-30T07:35:54.221Z,1.93
2022-08-30T07:38:21.069Z,2.08
2022-08-30T07:40:47.754Z,1.80
2022-08-30T07:43:14.342Z,1.68
2022-08-30T07:45:40.992Z,1.89
2022-08-30T07:48:07.593Z,1.76
2022-08-30T07:50:34.193Z,1.62
2022-08-30T07:53:00.802Z,2.00
2022-08-30T07:55:27.390Z,1.80
2022-08-30T07:57:54.060Z,1.85
2022-08-30T08:00:20.736Z,1.74
2022-08-30T08:02:47.596Z,1.85
2022-08-30T08:05:17.679Z,1.87
2022-08-30T08:07:45.616Z,1.79
2022-08-30T08:10:13.509Z,1.83
2022-08-30T08:12:40.619Z,1.82
2022-08-30T08:15:08.876Z,1.75
2022-08-30T08:17:35.724Z,1.85
2022-08-30T08:20:02.717Z,1.77
2022-08-30T08:22:29.314Z,1.95
2022-08-30T08:24:55.838Z,1.79
2022-08-30T08:27:24.795Z,1.75
2022-08-30T08:29:51.419Z,1.68
2022-08-30T08:32:18.126Z,1.59
2022-08-30T08:34:44.737Z,1.93
2022-08-30T08:37:11.546Z,2.09
2022-08-30T08:39:38.133Z,2.40
2022-08-30T08:42:07.938Z,2.14
2022-08-30T08:44:45.731Z,1.80
2022-08-30T08:47:12.299Z,1.78
2022-08-30T08:49:42.819Z,1.71
2022-08-30T08:52:33.353Z,1.66
2022-08-30T08:55:06.057Z,1.70
2022-08-30T08:57:35.185Z,1.66
2022-08-30T09:00:03.329Z,1.63
2022-08-30T09:02:39.081Z,1.99
2022-08-30T09:05:06.167Z,1.88
2022-08-30T09:07:37.479Z,1.67
2022-08-30T09:10:04.934Z,1.58
2022-08-30T09:12:32.082Z,1.89
2022-08-30T09:15:12.354Z,1.92
2022-08-30T09:17:53.358Z,1.69
2022-08-30T09:20:29.920Z,1.74
2022-08-30T09:22:56.749Z,1.74
2022-08-30T09:25:27.388Z,1.74
2022-08-30T09:27:56.259Z,1.59
2022-08-30T09:30:27.721Z,1.70
2022-08-30T09:33:02.716Z,1.63
2022-08-30T09:35:35.748Z,1.58
2022-08-30T09:38:07.304Z,1.41
2022-08-30T09:40:37.693Z,1.75
2022-08-30T09:43:16.457Z,1.49
2022-08-30T09:45:44.943Z,1.76
2022-08-30T09:48:29.164Z,1.47
2022-08-30T09:51:03.146Z,1.64
2022-08-30T09:53:34.506Z,1.73
2022-08-30T09:56:08.156Z,1.59
2022-08-30T09:58:36.797Z,1.52
2022-08-30T10:01:13.854Z,1.73
2022-08-30T10:03:57.858Z,1.58
2022-08-30T10:06:24.483Z,1.60
2022-08-30T10:09:00.723Z,1.79
2022-08-30T10:11:46.697Z,1.72
2022-08-30T10:14:31.966Z,1.74
2022-08-30T10:17:04.411Z,1.66
2022-08-30T10:19:51.358Z,1.90
2022-08-30T10:22:36.448Z,1.83
2022-08-30T10:25:29.504Z,1.84
2022-08-30T10:28:03.708Z,1.64
2022-08-30T10:30:34.001Z,1.79
2022-08-30T10:33:06.443Z,1.92
2022-08-30T10:35:38.967Z,1.64
2022-08-30T10:38:08.683Z,1.84
2022-08-30T10:40:56.569Z,1.92
2022-08-30T10:43:34.450Z,1.94
2022-08-30T10:46:05.794Z,1.88
2022-08-30T10:48:44.436Z,2.03
2022-08-30T10:51:25.048Z,2.00
2022-08-30T10:53:56.929Z,1.81
2022-08-30T10:56:26.298Z,1.90
2022-08-30T10:58:54.715Z,1.81
2022-08-30T11:01:33.121Z,1.83
2022-08-30T11:04:21.454Z,1.95
2022-08-30T11:07:09.832Z,1.87
2022-08-30T11:09:51.408Z,1.64
2022-08-30T11:12:24.135Z,1.74
2022-08-30T11:14:54.078Z,1.65
2022-08-30T11:17:44.290Z,1.75
2022-08-30T11:20:30.575Z,1.82
2022-08-30T11:23:15.507Z,1.88
2022-08-30T11:25:57.664Z,1.79
2022-08-30T11:28:37.089Z,1.75
2022-08-30T11:31:24.108Z,1.86
2022-08-30T11:33:52.683Z,1.75
2022-08-30T11:39:37.708Z,1.65
2022-08-30T11:42:24.945Z,1.63
2022-08-30T11:45:36.255Z,1.72
2022-08-30T11:48:09.470Z,1.66
2022-08-30T11:50:36.437Z,1.73
2022-08-30T11:53:21.179Z,1.66
2022-08-30T11:56:08.677Z,1.63
2022-08-30T11:58:54.184Z,1.63
2022-08-30T12:01:50.603Z,1.80
2022-08-30T12:04:27.398Z,1.63
2022-08-30T12:07:00.479Z,1.73
2022-08-30T12:09:26.987Z,1.69
2022-08-30T12:12:03.246Z,1.73
2022-08-30T12:14:49.148Z,1.65
2022-08-30T12:17:54.809Z,1.67
2022-08-30T12:20:22.882Z,1.92
2022-08-30T12:22:51.007Z,1.73
2022-08-30T12:25:30.833Z,1.88
2022-08-30T12:28:29.881Z,1.99
2022-08-30T12:31:06.773Z,1.79
2022-08-30T12:33:41.335Z,1.83
2022-08-30T12:36:12.012Z,1.70
2022-08-30T12:38:39.059Z,2.10
2022-08-30T12:41:05.984Z,1.94
2022-08-30T12:43:41.487Z,2.19
2022-08-30T12:46:11.980Z,2.21
2022-08-30T12:48:41.247Z,1.93
2022-08-30T12:51:10.898Z,1.85
2022-08-30T12:53:42.808Z,2.15
2022-08-30T12:56:11.361Z,1.97
2022-08-30T12:58:40.989Z,1.93
2022-08-30T13:01:18.407Z,1.81
2022-08-30T13:04:03.617Z,2.11
2022-08-30T13:06:43.489Z,2.12
2022-08-30T13:09:22.495Z,1.80
2022-08-30T13:11:50.655Z,2.07
2022-08-30T13:14:32.973Z,2.13
2022-08-30T13:17:18.256Z,1.84
2022-08-30T13:19:55.512Z,2.06
2022-08-30T13:22:27.792Z,1.95
2022-08-30T13:24:54.525Z,1.79
2022-08-30T13:27:21.221Z,1.95
2022-08-30T13:29:48.461Z,1.86
2022-08-30T13:32:16.103Z,1.76
2022-08-30T13:34:43.521Z,1.93
2022-08-30T13:40:04.560Z,1.97
2022-08-30T13:42:32.015Z,1.88
2022-08-30T13:44:58.949Z,1.66
2022-08-30T13:47:34.561Z,1.80
2022-08-30T13:50:01.910Z,1.73
2022-08-30T13:52:28.506Z,1.70
2022-08-30T13:54:56.688Z,1.75
2022-08-30T14:00:19.043Z,1.49
2022-08-30T14:02:54.227Z,1.80
2022-08-30T14:05:48.413Z,1.64
2022-08-30T14:11:05.161Z,1.60
2022-08-30T14:13:31.923Z,1.45
2022-08-30T14:18:47.412Z,1.60
2022-08-30T14:21:14.434Z,1.60
2022-08-30T14:23:41.744Z,1.66
2022-08-30T14:26:17.270Z,1.73
2022-08-30T14:28:44.908Z,1.78
2022-08-30T14:31:13.017Z,1.63
2022-08-30T14:33:40.249Z,1.56
2022-08-30T14:36:12.459Z,1.60
2022-08-30T14:38:42.630Z,1.76
2022-08-30T14:41:10.309Z,1.66
2022-08-30T14:43:37.829Z,1.68
2022-08-30T14:46:05.950Z,1.54
2022-08-30T14:48:32.696Z,1.57
2022-08-30T14:50:59.344Z,1.63
2022-08-30T14:53:26.428Z,1.54
2022-08-30T14:55:53.004Z,1.56
2022-08-30T14:58:19.705Z,1.55
2022-08-30T15:00:50.804Z,2.01
2022-08-30T15:03:17.550Z,2.35
2022-08-30T15:05:49.134Z,2.13
2022-08-30T15:08:19.765Z,2.02
2022-08-30T15:10:47.502Z,1.93
2022-08-30T15:13:14.222Z,2.32
2022-08-30T15:15:42.733Z,2.00
2022-08-30T15:18:09.987Z,1.89
2022-08-30T15:20:36.963Z,1.50
2022-08-30T15:23:03.818Z,1.74
2022-08-30T15:25:31.610Z,1.71
2022-08-30T15:27:58.395Z,1.68
2022-08-30T15:30:25.466Z,1.79
2022-08-30T15:32:52.019Z,1.76
2022-08-30T15:35:18.737Z,1.63
2022-08-30T15:37:45.396Z,1.85
2022-08-30T15:40:12.602Z,1.64
2022-08-30T15:42:40.171Z,1.81
2022-08-30T15:45:09.393Z,1.74
2022-08-30T15:47:36.201Z,1.71
2022-08-30T15:50:05.058Z,1.69
2022-08-30T15:52:32.453Z,1.78
2022-08-30T15:54:59.731Z,1.81
2022-08-30T15:57:26.490Z,1.76
2022-08-30T15:59:54.713Z,1.72
2022-08-30T16:02:22.241Z,1.67
2022-08-30T16:04:54.446Z,1.86
2022-08-30T16:07:21.271Z,1.79
2022-08-30T16:09:47.854Z,1.81
2022-08-30T16:12:23.376Z,1.74
2022-08-30T16:14:50.550Z,1.74
2022-08-30T16:17:17.400Z,1.80
2022-08-30T16:19:45.035Z,1.58
2022-08-30T16:22:11.833Z,1.67
2022-08-30T16:24:38.906Z,1.71
2022-08-30T16:27:05.878Z,1.78
2022-08-30T16:29:35.491Z,1.73
2022-08-30T16:32:02.521Z,1.56
2022-08-30T16:34:29.272Z,1.65
2022-08-30T16:36:55.901Z,1.72
2022-08-30T16:39:22.441Z,1.70
2022-08-30T16:41:49.167Z,1.81
2022-08-30T16:44:18.404Z,1.65
2022-08-30T16:46:53.185Z,1.75
2022-08-30T16:49:22.662Z,1.73
2022-08-30T16:51:49.840Z,1.81
2022-08-30T16:54:17.685Z,1.71
2022-08-30T16:56:45.722Z,1.88
2022-08-30T16:59:13.198Z,1.66
2022-08-30T17:01:42.335Z,1.59
2022-08-30T17:04:11.041Z,1.82
2022-08-30T17:06:40.063Z,1.85
2022-08-30T17:09:08.641Z,1.90
2022-08-30T17:11:36.761Z,1.72
2022-08-30T17:14:04.655Z,1.72
2022-08-30T17:16:31.427Z,1.64
2022-08-30T17:18:59.615Z,2.09
2022-08-30T17:21:27.661Z,2.12
2022-08-30T17:23:54.344Z,1.86
2022-08-30T17:26:27.979Z,1.73
2022-08-30T17:28:54.631Z,1.63
2022-08-30T17:31:29.066Z,1.83
2022-08-30T17:34:02.881Z,1.79
2022-08-30T17:36:31.644Z,1.75
2022-08-30T17:38:58.408Z,1.83
2022-08-30T17:41:25.550Z,1.99
2022-08-30T17:43:52.140Z,2.05
2022-08-30T17:46:20.662Z,1.82
2022-08-30T17:48:47.490Z,1.99
2022-08-30T17:51:24.640Z,1.79
2022-08-30T17:53:51.204Z,1.90
2022-08-30T17:56:18.441Z,1.98
2022-08-30T17:58:47.028Z,1.93
2022-08-30T18:01:15.296Z,1.94
2022-08-30T18:03:45.514Z,2.03
2022-08-30T18:06:12.693Z,2.03
2022-08-30T18:08:39.345Z,2.20
2022-08-30T18:11:06.683Z,2.22
2022-08-30T18:13:33.592Z,1.98
2022-08-30T18:16:04.635Z,2.02
2022-08-30T18:18:32.201Z,1.95
2022-08-30T18:20:59.862Z,1.80
2022-08-30T18:23:27.193Z,1.82
2022-08-30T18:25:58.232Z,1.79
2022-08-30T18:28:24.921Z,2.20
2022-08-30T18:30:58.670Z,2.06
2022-08-30T18:33:26.505Z,2.00
2022-08-30T18:35:55.530Z,2.01
2022-08-30T18:38:23.618Z,1.99
2022-08-30T18:40:51.800Z,1.83
2022-08-30T18:43:18.592Z,2.08
2022-08-30T18:45:51.585Z,2.16
2022-08-30T18:48:19.318Z,2.00
2022-08-30T18:50:46.853Z,1.94
2022-08-30T18:53:14.082Z,2.14
2022-08-30T18:55:55.881Z,2.02
2022-08-30T18:58:22.565Z,2.00
2022-08-30T19:00:49.685Z,1.95
2022-08-30T19:03:18.433Z,2.07
2022-08-30T19:05:46.036Z,2.03
2022-08-30T19:08:13.756Z,2.14
2022-08-30T19:10:41.145Z,2.08
2022-08-30T19:13:08.274Z,2.11
2022-08-30T19:15:35.258Z,2.16
2022-08-30T19:18:16.660Z,2.19
2022-08-30T19:20:44.077Z,2.23
2022-08-30T19:23:10.748Z,2.02
2022-08-30T19:25:37.577Z,2.12
2022-08-30T19:28:05.582Z,2.25
2022-08-30T19:30:32.604Z,2.51
2022-08-30T19:32:59.730Z,2.15
2022-08-30T19:35:26.857Z,2.31
2022-08-30T19:37:57.519Z,2.24
2022-08-30T19:40:24.578Z,2.35
2022-08-30T19:42:52.406Z,2.26
2022-08-30T19:45:21.656Z,2.33
2022-08-30T19:47:49.076Z,2.26
2022-08-30T19:50:16.562Z,2.60
2022-08-30T19:52:45.613Z,2.44
2022-08-30T19:55:14.026Z,2.37
2022-08-30T19:57:43.383Z,2.47
2022-08-30T20:00:12.810Z,2.91
2022-08-30T20:02:44.253Z,3.22
2022-08-30T20:05:14.710Z,3.60
2022-08-30T20:07:41.706Z,3.38
2022-08-30T20:10:10.863Z,3.49
2022-08-30T20:12:39.962Z,3.63
2022-08-30T20:15:14.675Z,3.95
2022-08-30T20:20:29.872Z,3.63
2022-08-30T20:22:56.862Z,3.90
2022-08-30T20:25:23.899Z,3.56
2022-08-30T20:27:50.492Z,3.69
2022-08-30T20:30:17.899Z,3.54
2022-08-30T20:32:46.748Z,3.59
2022-08-30T20:35:15.920Z,3.40
2022-08-30T20:37:43.340Z,3.47
2022-08-30T20:40:15.040Z,3.15
2022-08-30T20:42:45.770Z,2.99
2022-08-30T20:45:17.008Z,2.52
2022-08-30T20:47:43.802Z,2.40
2022-08-30T20:50:16.589Z,2.47
2022-08-30T20:52:43.259Z,2.51
2022-08-30T20:55:10.481Z,2.31
2022-08-30T20:57:37.174Z,2.14
2022-08-30T21:00:05.026Z,2.28
2022-08-30T21:02:33.006Z,1.98
2022-08-30T21:04:59.923Z,2.12
2022-08-30T21:07:26.625Z,2.03
2022-08-30T21:09:54.088Z,2.21
2022-08-30T21:12:22.870Z,1.91
2022-08-30T21:14:49.679Z,1.94
2022-08-30T21:17:16.434Z,1.90
2022-08-30T21:19:44.105Z,2.03
2022-08-30T21:22:11.470Z,1.96
2022-08-30T21:24:38.023Z,1.74
2022-08-30T21:27:04.876Z,2.00
2022-08-30T21:29:33.274Z,1.95
2022-08-30T21:32:00.010Z,1.75
2022-08-30T21:34:26.611Z,1.68
2022-08-30T21:36:53.519Z,1.86
2022-08-30T21:39:22.332Z,1.88
2022-08-30T21:41:50.332Z,1.85
2022-08-30T21:44:18.993Z,1.88
2022-08-30T21:46:46.457Z,1.99
2022-08-30T21:49:16.518Z,1.81
2022-08-30T21:51:45.658Z,1.77
2022-08-30T21:54:14.087Z,1.78
2022-08-30T21:56:42.590Z,1.71
2022-08-30T21:59:10.096Z,1.69
2022-08-30T22:01:37.752Z,1.77
2022-08-30T22:04:06.231Z,1.87
2022-08-30T22:06:34.198Z,1.66
2022-08-30T22:09:02.513Z,1.86
2022-08-30T22:11:31.097Z,1.79
2022-08-30T22:13:57.754Z,1.83
2022-08-30T22:16:25.738Z,1.93
2022-08-30T22:18:52.535Z,1.79
2022-08-30T22:21:21.171Z,1.67
2022-08-30T22:23:47.779Z,1.63
2022-08-30T22:26:16.809Z,1.66
2022-08-30T22:28:43.709Z,1.60
2022-08-30T22:31:12.269Z,1.67
2022-08-30T22:33:40.020Z,1.75
2022-08-30T22:36:32.409Z,1.90
2022-08-30T22:39:00.943Z,1.71
2022-08-30T22:41:31.128Z,1.75
2022-08-30T22:43:58.181Z,1.66
2022-08-30T22:46:33.794Z,1.65
2022-08-30T22:49:02.324Z,1.76
2022-08-30T22:51:29.391Z,1.68
2022-08-30T22:53:56.069Z,1.68
2022-08-30T22:56:25.070Z,1.70
2022-08-30T22:58:52.965Z,1.86
2022-08-30T23:01:25.193Z,1.62
2022-08-30T23:03:52.421Z,1.76
2022-08-30T23:06:19.116Z,1.77
2022-08-30T23:08:46.084Z,1.81
2022-08-30T23:11:13.057Z,1.72
2022-08-30T23:13:39.654Z,1.60
2022-08-30T23:16:07.808Z,1.62
2022-08-30T23:18:36.986Z,1.68
2022-08-30T23:21:10.845Z,1.51
2022-08-30T23:23:56.831Z,1.55
2022-08-30T23:26:42.437Z,1.56
2022-08-30T23:29:27.711Z,1.51
2022-08-30T23:32:13.813Z,1.47
2022-08-30T23:34:59.462Z,1.35
2022-08-30T23:37:44.848Z,1.41
2022-08-30T23:40:32.404Z,1.47
2022-08-30T23:43:17.896Z,1.64
2022-08-30T23:46:03.335Z,1.23
2022-08-30T23:48:50.779Z,1.36
2022-08-30T23:51:37.637Z,1.38
2022-08-30T23:54:24.454Z,1.52
2022-08-30T23:57:10.035Z,1.33
2022-08-30T23:59:56.143Z,1.43
